aviador You're here:

KGSO Decoded Metar

GREENSBORO in NC, USA
Report Time2017-09-26 02:54:00
UTC Time2017-09-26 03:46:48
Flight Rules vfr VFR
Wind040° at 06 kt
W.Decomp.*RWY 05: 6.0 kt HW 0.2 kt LCW
RWY 32: 0.2 kt HW 6.0 kt RCW
W.Rank040° ranks 12
Current wind is below 040° avg. (7.0)
Visibility9999 m
Phenomena:N/A
Clouds:Few 047 Hf
Broken 250 Hf
Expected CloudBase > 1,600 ft AGL from Temp-Dew spread
Ceiling25,000 ft
Temp23°C (ISA +10)
Dew Point19°C (78% RH)
QNH1015 hPa
Density Alt2,267 ft
Elevation902 ft
Report Wrong Elevation
Raw Report
KGSO 260254Z 04006KT 10SM FEW047 BKN250 23/19 A2998 RMK AO2 SLP141
T02280189 51009=

Extra information for KGSO:More info

Metar Taf Metar & Taf Last 4 Metars F.Rules Stats Wind Profile Meteogram Temp Stats Airport Information Weather charts Add Link Nearby VenuesMetar ALERT Operation Metar Decoded Social comments

AIRNAV info for KGSO